createdAt,value
2023-04-26T00:00:50.195Z,957.4309
2023-04-26T00:01:51.434Z,957.4378
2023-04-26T00:02:51.374Z,957.4558
2023-04-26T00:03:52.626Z,957.4705
2023-04-26T00:04:53.985Z,957.4734
2023-04-26T00:05:55.039Z,957.4836
2023-04-26T00:06:55.858Z,957.4884
2023-04-26T00:07:56.513Z,957.4960
2023-04-26T00:08:57.150Z,957.4976
2023-04-26T00:09:57.924Z,957.4993
2023-04-26T00:10:58.543Z,957.4980
2023-04-26T00:11:59.199Z,957.5022
2023-04-26T00:13:00.147Z,957.5009
2023-04-26T00:14:00.738Z,957.5051
2023-04-26T00:15:01.820Z,957.5045
2023-04-26T00:16:02.595Z,957.5069
2023-04-26T00:17:03.507Z,957.5056
2023-04-26T00:18:04.317Z,957.5087
2023-04-26T00:19:05.819Z,957.5134
2023-04-26T00:20:06.433Z,957.5178
2023-04-26T00:21:07.131Z,957.5251
2023-04-26T00:22:07.647Z,957.5265
2023-04-26T00:23:08.443Z,957.5353
2023-04-26T00:24:09.294Z,957.5424
2023-04-26T00:25:09.806Z,957.5529
2023-04-26T00:26:10.676Z,957.5756
2023-04-26T00:27:11.000Z,957.5959
2023-04-26T00:28:11.454Z,957.6132
2023-04-26T00:29:12.328Z,957.6243
2023-04-26T00:31:13.032Z,957.6178
2023-04-26T00:32:13.688Z,957.6031
2023-04-26T00:33:14.839Z,957.5907
2023-04-26T00:34:15.322Z,957.5834
2023-04-26T00:35:16.100Z,957.5798
2023-04-26T00:36:16.837Z,957.5724
2023-04-26T00:37:17.271Z,957.5640
2023-04-26T00:38:18.602Z,957.5475
2023-04-26T00:39:19.505Z,957.5270
2023-04-26T00:40:19.731Z,957.5203
2023-04-26T00:41:19.800Z,957.5280
2023-04-26T00:42:21.493Z,957.5396
2023-04-26T00:43:21.871Z,957.5554
2023-04-26T00:44:24.422Z,957.5598
2023-04-26T00:46:24.728Z,957.5489
2023-04-26T00:47:25.405Z,957.5461
2023-04-26T00:48:26.205Z,957.5413
2023-04-26T00:49:26.723Z,957.5364
2023-04-26T00:50:27.526Z,957.5245
2023-04-26T00:51:28.138Z,957.5116
2023-04-26T00:52:28.870Z,957.4971
2023-04-26T00:53:29.664Z,957.4744
2023-04-26T00:54:30.211Z,957.4657
2023-04-26T00:55:32.310Z,957.4632
2023-04-26T00:57:32.175Z,957.4891
2023-04-26T00:58:32.310Z,957.5037
2023-04-26T00:59:35.110Z,957.5191
2023-04-26T01:00:35.601Z,957.5309
2023-04-26T01:01:36.130Z,957.5397
2023-04-26T01:02:36.745Z,957.5449
2023-04-26T01:03:37.505Z,957.5558
2023-04-26T01:04:38.158Z,957.5651
2023-04-26T01:05:39.867Z,957.5660
2023-04-26T01:06:39.835Z,957.5656
2023-04-26T01:07:40.433Z,957.5629
2023-04-26T01:08:41.095Z,957.5600
2023-04-26T01:09:41.929Z,957.5449
2023-04-26T01:10:42.752Z,957.5289
2023-04-26T01:11:43.608Z,957.5129
2023-04-26T01:12:44.296Z,957.4947
2023-04-26T01:13:44.879Z,957.4838
2023-04-26T01:14:45.253Z,957.4760
2023-04-26T01:15:45.991Z,957.4760
2023-04-26T01:16:47.128Z,957.4811
2023-04-26T01:17:48.321Z,957.4813
2023-04-26T01:18:49.221Z,957.4872
2023-04-26T01:19:48.687Z,957.4928
2023-04-26T01:20:48.659Z,957.4937
2023-04-26T01:21:52.254Z,957.4884
2023-04-26T01:22:52.349Z,957.4741
2023-04-26T01:23:52.599Z,957.4609
2023-04-26T01:24:52.844Z,957.4529
2023-04-26T01:25:53.557Z,957.4509
2023-04-26T01:26:53.840Z,957.4563
2023-04-26T01:27:54.335Z,957.4522
2023-04-26T01:29:54.657Z,957.4373
2023-04-26T01:30:55.473Z,957.4265
2023-04-26T01:31:56.408Z,957.4178
2023-04-26T01:32:57.206Z,957.4113
2023-04-26T01:33:57.985Z,957.4147
2023-04-26T01:34:58.654Z,957.4260
2023-04-26T01:35:59.392Z,957.4333
2023-04-26T01:37:00.302Z,957.4280
2023-04-26T01:38:00.851Z,957.4291
2023-04-26T01:39:01.528Z,957.4207
2023-04-26T01:40:02.327Z,957.4155
2023-04-26T01:41:02.912Z,957.4164
2023-04-26T01:42:03.721Z,957.4251
2023-04-26T01:43:04.330Z,957.4307
2023-04-26T01:44:05.312Z,957.4349
2023-04-26T01:45:06.117Z,957.4378
2023-04-26T01:46:06.871Z,957.4407
2023-04-26T01:47:07.080Z,957.4293
2023-04-26T01:48:08.124Z,957.4147
2023-04-26T01:49:08.392Z,957.4034
2023-04-26T01:50:08.630Z,957.3978
2023-04-26T01:51:10.344Z,957.3840
2023-04-26T01:52:09.944Z,957.3721
2023-04-26T01:53:10.649Z,957.3535
2023-04-26T01:54:11.480Z,957.3293
2023-04-26T01:55:12.271Z,957.3098
2023-04-26T01:56:12.975Z,957.3013
2023-04-26T01:57:13.692Z,957.2944
2023-04-26T01:58:14.214Z,957.2996
2023-04-26T01:59:15.381Z,957.3113
2023-04-26T02:00:15.968Z,957.3162
2023-04-26T02:01:16.619Z,957.3060
2023-04-26T02:02:17.676Z,957.3035
2023-04-26T02:03:17.917Z,957.3043
2023-04-26T02:04:18.732Z,957.3098
2023-04-26T02:05:19.534Z,957.3022
2023-04-26T02:06:20.637Z,957.2917
2023-04-26T02:07:21.423Z,957.2900
2023-04-26T02:08:22.145Z,957.2820
2023-04-26T02:09:23.218Z,957.2682
2023-04-26T02:10:24.027Z,957.2542
2023-04-26T02:11:24.494Z,957.2440
2023-04-26T02:12:25.695Z,957.2282
2023-04-26T02:13:26.807Z,957.2116
2023-04-26T02:14:26.500Z,957.1954
2023-04-26T02:15:27.201Z,957.1832
2023-04-26T02:16:28.703Z,957.1609
2023-04-26T02:17:29.634Z,957.1384
2023-04-26T02:18:30.924Z,957.1107
2023-04-26T02:19:31.379Z,957.0988
2023-04-26T02:20:32.026Z,957.0934
2023-04-26T02:21:32.343Z,957.0859
2023-04-26T02:22:33.051Z,957.0847
2023-04-26T02:23:33.740Z,957.0734
2023-04-26T02:24:34.239Z,957.0653
2023-04-26T02:25:35.418Z,957.0551
2023-04-26T02:26:35.344Z,957.0479
2023-04-26T02:27:36.670Z,957.0398
2023-04-26T02:28:37.560Z,957.0414
2023-04-26T02:30:38.498Z,957.0369
2023-04-26T02:31:39.520Z,957.0334
2023-04-26T02:32:39.648Z,957.0307
2023-04-26T02:33:40.213Z,957.0305
2023-04-26T02:34:41.082Z,957.0377
2023-04-26T02:35:41.085Z,957.0475
2023-04-26T02:36:41.629Z,957.0623
2023-04-26T02:37:42.108Z,957.0662
2023-04-26T02:38:42.568Z,957.0709
2023-04-26T02:39:43.664Z,957.0703
2023-04-26T02:40:45.020Z,957.0631
2023-04-26T02:41:49.112Z,957.0626
2023-04-26T02:43:48.401Z,957.0625
2023-04-26T02:44:49.074Z,957.0638
2023-04-26T02:45:49.788Z,957.0600
2023-04-26T02:46:50.372Z,957.0604
2023-04-26T02:47:51.675Z,957.0562
2023-04-26T02:48:51.947Z,957.0571
2023-04-26T02:49:53.609Z,957.0546
2023-04-26T02:51:55.798Z,957.0687
2023-04-26T02:53:55.708Z,957.0961
2023-04-26T02:54:57.125Z,957.1109
2023-04-26T02:56:08.052Z,957.1179
2023-04-26T02:57:09.240Z,957.1282
2023-04-26T02:58:10.464Z,957.1278
2023-04-26T02:59:11.278Z,957.1230
2023-04-26T03:01:14.476Z,957.1171
2023-04-26T03:02:15.937Z,957.1122
2023-04-26T03:04:16.127Z,957.1077
2023-04-26T03:05:15.777Z,957.1053
2023-04-26T03:06:17.069Z,957.1035
2023-04-26T03:07:17.804Z,957.0953
2023-04-26T03:08:19.079Z,957.0820
2023-04-26T03:09:19.636Z,957.0738
2023-04-26T03:10:20.430Z,957.0600
2023-04-26T03:11:21.145Z,957.0524
2023-04-26T03:12:21.783Z,957.0544
2023-04-26T03:13:22.657Z,957.0613
2023-04-26T03:14:23.419Z,957.0673
2023-04-26T03:15:24.150Z,957.0767
2023-04-26T03:16:25.070Z,957.0887
2023-04-26T03:17:26.225Z,957.1066
2023-04-26T03:18:26.420Z,957.1107
2023-04-26T03:19:27.404Z,957.1046
2023-04-26T03:20:28.519Z,957.1038
2023-04-26T03:21:29.372Z,957.1016
2023-04-26T03:22:29.862Z,957.1046
2023-04-26T03:23:30.723Z,957.1102
2023-04-26T03:24:31.167Z,957.1177
2023-04-26T03:25:32.966Z,957.1252
2023-04-26T03:26:33.236Z,957.1293
2023-04-26T03:27:33.181Z,957.1279
2023-04-26T03:28:33.236Z,957.1288
2023-04-26T03:29:33.768Z,957.1284
2023-04-26T03:30:34.480Z,957.1269
2023-04-26T03:31:35.207Z,957.1220
2023-04-26T03:32:35.247Z,957.1171
2023-04-26T03:33:35.913Z,957.1100
2023-04-26T03:34:36.860Z,957.1049
2023-04-26T03:35:37.722Z,957.1116
2023-04-26T03:36:38.431Z,957.1220
2023-04-26T03:37:39.132Z,957.1324
2023-04-26T03:38:39.225Z,957.1500
2023-04-26T03:39:39.985Z,957.1649
2023-04-26T03:40:40.842Z,957.1722
2023-04-26T03:41:41.742Z,957.1733
2023-04-26T03:42:42.735Z,957.1741
2023-04-26T03:43:43.753Z,957.1632
2023-04-26T03:44:44.765Z,957.1418
2023-04-26T03:46:46.332Z,957.1084
2023-04-26T03:47:47.585Z,957.0977
2023-04-26T03:51:09.841Z,957.0509
2023-04-26T03:51:49.544Z,957.0331
2023-04-26T03:52:50.360Z,957.0303
2023-04-26T03:53:50.661Z,957.0190
2023-04-26T03:55:10.892Z,957.0159
2023-04-26T03:55:51.638Z,957.0034
2023-04-26T03:56:51.550Z,957.0014
2023-04-26T03:57:52.393Z,957.0031
2023-04-26T03:58:53.794Z,957.0091
2023-04-26T03:59:55.121Z,957.0134
2023-04-26T04:01:55.839Z,957.0000
2023-04-26T04:02:56.152Z,956.9874
2023-04-26T04:03:56.724Z,956.9747
2023-04-26T04:06:57.850Z,956.9664
2023-04-26T04:07:57.640Z,956.9636
2023-04-26T04:08:58.933Z,956.9667
2023-04-26T04:10:00.677Z,956.9784
2023-04-26T04:11:00.216Z,956.9929
2023-04-26T04:12:01.344Z,957.0125
2023-04-26T04:13:02.399Z,957.0236
2023-04-26T04:14:02.635Z,957.0309
2023-04-26T04:15:03.096Z,957.0311
2023-04-26T04:16:05.169Z,957.0280
2023-04-26T04:17:04.352Z,957.0256
2023-04-26T04:18:06.196Z,957.0222
2023-04-26T04:19:07.452Z,957.0178
2023-04-26T04:20:07.036Z,957.0207
2023-04-26T04:21:07.790Z,957.0273
2023-04-26T04:22:08.514Z,957.0382
2023-04-26T04:23:09.280Z,957.0406
2023-04-26T04:24:10.633Z,957.0338
2023-04-26T04:25:11.746Z,957.0330
2023-04-26T04:26:12.361Z,957.0307
2023-04-26T04:27:12.993Z,957.0311
2023-04-26T04:28:13.245Z,957.0382
2023-04-26T04:29:14.890Z,957.0429
2023-04-26T04:31:15.815Z,957.0480
2023-04-26T04:32:16.539Z,957.0546
2023-04-26T04:33:16.718Z,957.0646
2023-04-26T04:34:17.845Z,957.0703
2023-04-26T04:36:18.474Z,957.0511
2023-04-26T04:37:18.832Z,957.0472
2023-04-26T04:38:20.064Z,957.0442
2023-04-26T04:39:21.007Z,957.0427
2023-04-26T04:40:21.340Z,957.0524
2023-04-26T04:41:43.477Z,957.0638
2023-04-26T04:42:21.882Z,957.0632
2023-04-26T04:43:23.459Z,957.0573
2023-04-26T04:44:24.559Z,957.0496
2023-04-26T04:45:25.098Z,957.0471
2023-04-26T04:46:25.900Z,957.0422
2023-04-26T04:47:28.514Z,957.0417
2023-04-26T04:50:29.404Z,957.0578
2023-04-26T04:52:28.822Z,957.0834
2023-04-26T04:53:29.388Z,957.0891
2023-04-26T04:54:31.138Z,957.0942
2023-04-26T04:55:30.823Z,957.0968
2023-04-26T04:56:32.046Z,957.0991
2023-04-26T04:58:32.395Z,957.1230
2023-04-26T04:59:33.364Z,957.1414
2023-04-26T05:00:35.026Z,957.1548
2023-04-26T05:01:36.184Z,957.1586
2023-04-26T05:02:36.568Z,957.1700
2023-04-26T05:03:38.000Z,957.1797
2023-04-26T05:04:38.226Z,957.1890
2023-04-26T05:05:38.344Z,957.2029
2023-04-26T05:06:39.380Z,957.2107
2023-04-26T05:07:40.026Z,957.2241
2023-04-26T05:08:41.169Z,957.2343
2023-04-26T05:09:42.735Z,957.2366
2023-04-26T05:10:42.872Z,957.2427
2023-04-26T05:11:43.988Z,957.2521
2023-04-26T05:19:53.371Z,957.2906
2023-04-26T05:20:54.137Z,957.3127
2023-04-26T05:21:55.349Z,957.3345
2023-04-26T05:22:56.022Z,957.3480
2023-04-26T05:23:56.226Z,957.3661
2023-04-26T05:24:57.285Z,957.3813
2023-04-26T05:25:57.929Z,957.3983
2023-04-26T05:26:58.636Z,957.4109
2023-04-26T05:27:59.198Z,957.4216
2023-04-26T05:29:00.121Z,957.4347
2023-04-26T05:30:00.811Z,957.4363
2023-04-26T05:31:01.995Z,957.4286
2023-04-26T05:32:03.244Z,957.4124
2023-04-26T05:33:03.264Z,957.4048
2023-04-26T05:34:03.910Z,957.3995
2023-04-26T05:35:04.505Z,957.3907
2023-04-26T05:36:04.851Z,957.3969
2023-04-26T05:37:05.281Z,957.3974
2023-04-26T05:38:06.042Z,957.3862
2023-04-26T05:39:06.618Z,957.3613
2023-04-26T05:40:07.633Z,957.3449
2023-04-26T05:41:08.322Z,957.3338
2023-04-26T05:42:08.661Z,957.3229
2023-04-26T05:43:09.702Z,957.3307
2023-04-26T05:44:10.279Z,957.3462
2023-04-26T05:45:10.997Z,957.3618
2023-04-26T05:46:12.149Z,957.3789
2023-04-26T05:47:13.428Z,957.3938
2023-04-26T05:48:14.266Z,957.4062
2023-04-26T05:49:14.964Z,957.4262
2023-04-26T05:50:15.549Z,957.4438
2023-04-26T05:51:16.682Z,957.4604
2023-04-26T05:52:17.321Z,957.4724
2023-04-26T05:53:17.808Z,957.4789
2023-04-26T05:54:18.198Z,957.4718
2023-04-26T05:55:18.874Z,957.4704
2023-04-26T05:56:19.549Z,957.4753
2023-04-26T05:57:19.782Z,957.4862
2023-04-26T05:58:20.341Z,957.4922
2023-04-26T05:59:21.175Z,957.5040
2023-04-26T06:00:21.906Z,957.5098
2023-04-26T06:01:22.714Z,957.5189
2023-04-26T06:02:24.217Z,957.5320
2023-04-26T06:03:24.265Z,957.5363
2023-04-26T06:04:25.156Z,957.5414
2023-04-26T06:05:25.178Z,957.5460
2023-04-26T06:06:25.851Z,957.5391
2023-04-26T06:07:26.465Z,957.5357
2023-04-26T06:08:27.077Z,957.5393
2023-04-26T06:09:27.238Z,957.5436
2023-04-26T06:10:28.036Z,957.5520
2023-04-26T06:11:28.757Z,957.5587
2023-04-26T06:12:29.513Z,957.5720
2023-04-26T06:13:30.237Z,957.5798
2023-04-26T06:14:31.119Z,957.5958
2023-04-26T06:15:32.163Z,957.6176
2023-04-26T06:16:32.942Z,957.6316
2023-04-26T06:17:34.155Z,957.6479
2023-04-26T06:18:35.165Z,957.6628
2023-04-26T06:19:35.721Z,957.6766
2023-04-26T06:20:36.494Z,957.6822
2023-04-26T06:21:37.319Z,957.6860
2023-04-26T06:22:37.981Z,957.6913
2023-04-26T06:23:39.215Z,957.6949
2023-04-26T06:24:39.798Z,957.6920
2023-04-26T06:25:40.607Z,957.6904
2023-04-26T06:26:41.530Z,957.6793
2023-04-26T06:27:42.153Z,957.6762
2023-04-26T06:28:42.896Z,957.6838
2023-04-26T06:29:43.728Z,957.6958
2023-04-26T06:30:44.637Z,957.7069
2023-04-26T06:31:45.633Z,957.7031
2023-04-26T06:32:46.762Z,957.6958
2023-04-26T06:33:47.419Z,957.6847
2023-04-26T06:34:48.607Z,957.6809
2023-04-26T06:35:49.107Z,957.6800
2023-04-26T06:36:49.760Z,957.6811
2023-04-26T06:37:50.939Z,957.6813
2023-04-26T06:38:51.520Z,957.6769
2023-04-26T06:39:52.329Z,957.6740
2023-04-26T06:40:53.206Z,957.6722
2023-04-26T06:41:53.757Z,957.6740
2023-04-26T06:42:54.476Z,957.6920
2023-04-26T06:43:55.412Z,957.6987
2023-04-26T06:44:55.232Z,957.6982
2023-04-26T06:45:55.203Z,957.6979
2023-04-26T06:46:56.032Z,957.6982
2023-04-26T06:47:57.191Z,957.7072
2023-04-26T06:48:57.984Z,957.7186
2023-04-26T06:49:58.639Z,957.7340
2023-04-26T06:50:59.298Z,957.7389
2023-04-26T06:51:59.936Z,957.7344
2023-04-26T06:53:01.185Z,957.7071
2023-04-26T06:54:01.914Z,957.6858
2023-04-26T06:55:03.427Z,957.6754
2023-04-26T06:56:04.019Z,957.6673
2023-04-26T06:57:04.634Z,957.6627
2023-04-26T06:58:05.130Z,957.6564
2023-04-26T06:59:05.838Z,957.6627
2023-04-26T07:00:06.563Z,957.6691
2023-04-26T07:01:07.033Z,957.6651
2023-04-26T07:02:08.136Z,957.6542
2023-04-26T07:03:08.707Z,957.6439
2023-04-26T07:04:09.964Z,957.6391
2023-04-26T07:05:11.019Z,957.6212
2023-04-26T07:06:12.252Z,957.6184
2023-04-26T07:07:13.762Z,957.6222
2023-04-26T07:08:13.420Z,957.6291
2023-04-26T07:09:14.100Z,957.6473
2023-04-26T07:10:14.796Z,957.6538
2023-04-26T07:11:15.473Z,957.6600
2023-04-26T07:12:16.464Z,957.6588
2023-04-26T07:13:17.090Z,957.6393
2023-04-26T07:14:17.764Z,957.6198
2023-04-26T07:15:18.731Z,957.6102
2023-04-26T07:16:19.483Z,957.6113
2023-04-26T07:17:20.418Z,957.6271
2023-04-26T07:18:21.276Z,957.6367
2023-04-26T07:19:21.935Z,957.6307
2023-04-26T07:20:22.498Z,957.6307
2023-04-26T07:21:23.231Z,957.6262
2023-04-26T07:22:23.855Z,957.6255
2023-04-26T07:23:24.580Z,957.6334
2023-04-26T07:24:25.297Z,957.6291
2023-04-26T07:25:25.747Z,957.6238
2023-04-26T07:26:26.658Z,957.6147
2023-04-26T07:27:26.403Z,957.6018
2023-04-26T07:28:26.877Z,957.5889
2023-04-26T07:29:27.614Z,957.5878
2023-04-26T07:30:28.459Z,957.5975
2023-04-26T07:31:28.786Z,957.6041
2023-04-26T07:32:29.740Z,957.6127
2023-04-26T07:33:31.662Z,957.6107
2023-04-26T07:34:31.931Z,957.5997
2023-04-26T07:35:32.901Z,957.5876
2023-04-26T07:36:33.299Z,957.5872
2023-04-26T07:37:33.775Z,957.5809
2023-04-26T07:38:34.359Z,957.5718
2023-04-26T07:39:34.815Z,957.5687
2023-04-26T07:40:35.770Z,957.5678
2023-04-26T07:41:36.683Z,957.5749
2023-04-26T07:42:37.834Z,957.5809
2023-04-26T07:43:38.633Z,957.5878
2023-04-26T07:44:39.081Z,957.5883
2023-04-26T07:45:39.819Z,957.5902
2023-04-26T07:46:40.885Z,957.5798
2023-04-26T07:47:41.374Z,957.5649
2023-04-26T07:48:42.125Z,957.5516
2023-04-26T07:49:42.677Z,957.5380
2023-04-26T07:50:43.309Z,957.5358
2023-04-26T07:51:44.082Z,957.5360
2023-04-26T07:52:44.534Z,957.5340
2023-04-26T07:53:45.188Z,957.5338
2023-04-26T07:54:45.442Z,957.5266
2023-04-26T07:55:45.927Z,957.5156
2023-04-26T07:56:46.682Z,957.5112
2023-04-26T07:57:47.193Z,957.5093
2023-04-26T07:58:47.881Z,957.5187
2023-04-26T07:59:48.660Z,957.5189
2023-04-26T08:00:49.116Z,957.5273
2023-04-26T08:01:49.852Z,957.5291
2023-04-26T08:02:50.947Z,957.5369
2023-04-26T08:03:51.381Z,957.5316
2023-04-26T08:04:52.463Z,957.5335
2023-04-26T08:05:53.369Z,957.5295
2023-04-26T08:06:53.328Z,957.5212
2023-04-26T08:07:53.868Z,957.5065
2023-04-26T08:08:54.585Z,957.4771
2023-04-26T08:09:55.507Z,957.4516
2023-04-26T08:10:56.042Z,957.4276
2023-04-26T08:11:56.895Z,957.4244
2023-04-26T08:12:57.632Z,957.4404
2023-04-26T08:13:57.892Z,957.4507
2023-04-26T08:14:58.509Z,957.4540
2023-04-26T08:15:59.437Z,957.4629
2023-04-26T08:17:00.269Z,957.4594
2023-04-26T08:18:00.476Z,957.4616
2023-04-26T08:19:01.422Z,957.4595
2023-04-26T08:20:02.203Z,957.4587
2023-04-26T08:21:02.807Z,957.4540
2023-04-26T08:22:03.438Z,957.4511
2023-04-26T08:23:04.169Z,957.4522
2023-04-26T08:24:05.335Z,957.4456
2023-04-26T08:25:06.092Z,957.4529
2023-04-26T08:26:06.796Z,957.4514
2023-04-26T08:27:07.350Z,957.4389
2023-04-26T08:28:08.132Z,957.4380
2023-04-26T08:29:08.812Z,957.4269
2023-04-26T08:30:09.702Z,957.4147
2023-04-26T08:31:09.948Z,957.4057
2023-04-26T08:32:10.843Z,957.3994
2023-04-26T08:33:11.908Z,957.4040
2023-04-26T08:34:12.656Z,957.4200
2023-04-26T08:35:13.164Z,957.4280
2023-04-26T08:36:13.821Z,957.4462
2023-04-26T08:37:14.261Z,957.4595
2023-04-26T08:38:14.915Z,957.4733
2023-04-26T08:39:15.675Z,957.4955
2023-04-26T08:40:16.338Z,957.4916
2023-04-26T08:41:17.057Z,957.4987
2023-04-26T08:42:17.730Z,957.4858
2023-04-26T08:43:18.367Z,957.4838
2023-04-26T08:44:19.062Z,957.4751
2023-04-26T08:45:19.551Z,957.4580
2023-04-26T08:46:20.272Z,957.4514
2023-04-26T08:47:21.133Z,957.4438
2023-04-26T08:48:22.344Z,957.4281
2023-04-26T08:49:23.042Z,957.4296
2023-04-26T08:50:23.811Z,957.4153
2023-04-26T08:51:24.364Z,957.4166
2023-04-26T08:52:24.725Z,957.4068
2023-04-26T08:53:25.270Z,957.3904
2023-04-26T08:54:26.042Z,957.3851
2023-04-26T08:55:26.677Z,957.3811
2023-04-26T08:56:27.138Z,957.3807
2023-04-26T08:57:27.879Z,957.3809
2023-04-26T08:58:28.573Z,957.3907
2023-04-26T08:59:29.039Z,957.4049
2023-04-26T09:00:29.772Z,957.4071
2023-04-26T09:01:30.337Z,957.4075
2023-04-26T09:02:31.102Z,957.4180
2023-04-26T09:03:31.658Z,957.4229
2023-04-26T09:04:32.503Z,957.4330
2023-04-26T09:05:33.268Z,957.4398
2023-04-26T09:06:34.258Z,957.4528
2023-04-26T09:07:34.944Z,957.4633
2023-04-26T09:08:35.627Z,957.4733
2023-04-26T09:09:36.615Z,957.4905
2023-04-26T09:10:37.427Z,957.5067
2023-04-26T09:11:38.128Z,957.5158
2023-04-26T09:12:38.696Z,957.5305
2023-04-26T09:13:39.452Z,957.5369
2023-04-26T09:14:39.985Z,957.5480
2023-04-26T09:15:40.810Z,957.5369
2023-04-26T09:16:42.031Z,957.5535
2023-04-26T09:17:42.864Z,957.5700
2023-04-26T09:18:44.152Z,957.5907
2023-04-26T09:19:44.933Z,957.6091
2023-04-26T09:20:45.271Z,957.6198
2023-04-26T09:21:45.993Z,957.6302
2023-04-26T09:22:46.701Z,957.6151
2023-04-26T09:23:47.279Z,957.6027
2023-04-26T09:24:48.035Z,957.5796
2023-04-26T09:25:48.579Z,957.5691
2023-04-26T09:26:49.326Z,957.5458
2023-04-26T09:27:49.966Z,957.5156
2023-04-26T09:28:50.663Z,957.4987
2023-04-26T09:29:51.027Z,957.4761
2023-04-26T09:30:51.512Z,957.4780
2023-04-26T09:31:52.943Z,957.4664
2023-04-26T09:32:53.834Z,957.4717
2023-04-26T09:33:54.903Z,957.4793
2023-04-26T09:34:55.530Z,957.4773
2023-04-26T09:35:56.142Z,957.4869
2023-04-26T09:36:56.625Z,957.4897
2023-04-26T09:38:01.123Z,957.4783
2023-04-26T09:38:58.552Z,957.4695
2023-04-26T09:39:59.247Z,957.4738
2023-04-26T09:40:59.967Z,957.4804
2023-04-26T09:42:00.446Z,957.5000
2023-04-26T09:43:01.162Z,957.5051
2023-04-26T09:44:01.997Z,957.5034
2023-04-26T09:45:02.651Z,957.5045
2023-04-26T09:46:03.384Z,957.5065
2023-04-26T09:47:04.382Z,957.5089
2023-04-26T09:48:04.306Z,957.4984
2023-04-26T09:49:04.453Z,957.4816
2023-04-26T09:50:05.137Z,957.4613
2023-04-26T09:51:05.901Z,957.4580
2023-04-26T09:52:06.606Z,957.4780
2023-04-26T09:53:07.083Z,957.4780
2023-04-26T09:54:07.740Z,957.4781
2023-04-26T09:55:09.177Z,957.4738
2023-04-26T09:56:08.556Z,957.4724
2023-04-26T09:57:09.450Z,957.4749
2023-04-26T09:58:09.953Z,957.4589
2023-04-26T09:59:10.171Z,957.4438
2023-04-26T10:00:10.806Z,957.4442
2023-04-26T10:01:11.458Z,957.4331
2023-04-26T10:02:12.368Z,957.4222
2023-04-26T10:03:14.173Z,957.4196
2023-04-26T10:04:14.545Z,957.4097
2023-04-26T10:05:15.506Z,957.4007
2023-04-26T10:06:16.181Z,957.3856
2023-04-26T10:07:16.638Z,957.3822
2023-04-26T10:08:17.388Z,957.3938
2023-04-26T10:09:18.500Z,957.4025
2023-04-26T10:10:19.273Z,957.3984
2023-04-26T10:11:20.025Z,957.4031
2023-04-26T10:12:20.763Z,957.4139
2023-04-26T10:13:21.434Z,957.3847
2023-04-26T10:14:22.187Z,957.3787
2023-04-26T10:15:22.752Z,957.3809
2023-04-26T10:16:23.510Z,957.3698
2023-04-26T10:17:24.354Z,957.3631
2023-04-26T10:18:25.156Z,957.3831
2023-04-26T10:19:25.986Z,957.3765
2023-04-26T10:20:26.689Z,957.3642
2023-04-26T10:21:27.438Z,957.3522
2023-04-26T10:22:28.082Z,957.3506
2023-04-26T10:23:28.588Z,957.3196
2023-04-26T10:24:29.433Z,957.2980
2023-04-26T10:25:29.990Z,957.2673
2023-04-26T10:26:30.667Z,957.2524
2023-04-26T10:27:31.393Z,957.2567
2023-04-26T10:28:32.001Z,957.2289
2023-04-26T10:29:32.635Z,957.2240
2023-04-26T10:30:33.401Z,957.2362
2023-04-26T10:31:34.152Z,957.2113
2023-04-26T10:32:35.162Z,957.1829
2023-04-26T10:33:36.479Z,957.1762
2023-04-26T10:34:37.064Z,957.1660
2023-04-26T10:35:37.924Z,957.1398
2023-04-26T10:36:38.387Z,957.1178
2023-04-26T10:37:39.004Z,957.0969
2023-04-26T10:38:39.960Z,957.0638
2023-04-26T10:40:45.821Z,957.0465
2023-04-26T10:41:46.796Z,957.0486
2023-04-26T10:42:47.786Z,957.0723
2023-04-26T10:43:48.507Z,957.0851
2023-04-26T10:44:49.623Z,957.0951
2023-04-26T10:45:50.407Z,957.0791
2023-04-26T10:47:51.131Z,957.0629
2023-04-26T10:48:52.088Z,957.0405
2023-04-26T10:49:52.250Z,957.0139
2023-04-26T10:50:52.882Z,956.9611
2023-04-26T10:51:53.585Z,956.9706
2023-04-26T10:52:54.128Z,956.9591
2023-04-26T10:53:55.570Z,956.9458
2023-04-26T10:54:55.467Z,956.9366
2023-04-26T10:55:56.088Z,956.9265
2023-04-26T10:56:56.785Z,956.9191
2023-04-26T10:57:57.610Z,956.9249
2023-04-26T10:58:58.237Z,956.9040
2023-04-26T10:59:59.064Z,956.9052
2023-04-26T11:01:00.091Z,956.8876
2023-04-26T11:02:00.151Z,956.8582
2023-04-26T11:03:01.301Z,956.8513
2023-04-26T11:04:02.537Z,956.8354
2023-04-26T11:05:03.578Z,956.8156
2023-04-26T11:06:04.196Z,956.8069
2023-04-26T11:07:05.197Z,956.7900
2023-04-26T11:08:05.722Z,956.7996
2023-04-26T11:09:06.754Z,956.8000
2023-04-26T11:10:07.534Z,956.8089
2023-04-26T11:11:08.025Z,956.8098
2023-04-26T11:12:08.645Z,956.7940
2023-04-26T11:13:09.311Z,956.7784
2023-04-26T11:14:09.923Z,956.7818
2023-04-26T11:15:10.663Z,956.7860
2023-04-26T11:16:11.592Z,956.8338
2023-04-26T11:17:12.646Z,956.8365
2023-04-26T11:18:13.529Z,956.8669
2023-04-26T11:19:14.196Z,956.8684
2023-04-26T11:20:14.982Z,956.8589
2023-04-26T11:21:15.797Z,956.8389
2023-04-26T11:22:16.606Z,956.8171
2023-04-26T11:23:17.237Z,956.8007
2023-04-26T11:24:17.695Z,956.7978
2023-04-26T11:25:18.365Z,956.8120
2023-04-26T11:26:19.084Z,956.8242
2023-04-26T11:27:19.562Z,956.8031
2023-04-26T11:28:20.333Z,956.7827
2023-04-26T11:29:20.816Z,956.7709
2023-04-26T11:30:21.460Z,956.7616
2023-04-26T11:31:22.819Z,956.7438
2023-04-26T11:32:23.853Z,956.7402
2023-04-26T11:33:24.817Z,956.7289
2023-04-26T11:34:25.450Z,956.7160
2023-04-26T11:35:25.942Z,956.7193
2023-04-26T11:36:26.585Z,956.7200
2023-04-26T11:37:27.048Z,956.7355
2023-04-26T11:38:27.628Z,956.7444
2023-04-26T11:39:28.712Z,956.7333
2023-04-26T11:40:29.216Z,956.7138
2023-04-26T11:41:29.920Z,956.7260
2023-04-26T11:42:30.625Z,956.7362
2023-04-26T11:43:31.260Z,956.7193
2023-04-26T11:44:32.459Z,956.6769
2023-04-26T11:45:32.987Z,956.6693
2023-04-26T11:46:33.734Z,956.6222
2023-04-26T11:47:34.634Z,956.6133
2023-04-26T11:48:35.419Z,956.6127
2023-04-26T11:49:36.245Z,956.6096
2023-04-26T11:50:36.932Z,956.6169
2023-04-26T11:51:37.673Z,956.6173
2023-04-26T11:52:38.255Z,956.6166
2023-04-26T11:53:38.747Z,956.5873
2023-04-26T11:54:39.731Z,956.5709
2023-04-26T11:55:40.446Z,956.5540
2023-04-26T11:56:41.018Z,956.5433
2023-04-26T11:57:41.810Z,956.5565
2023-04-26T11:58:42.808Z,956.5667
2023-04-26T11:59:43.944Z,956.5768
2023-04-26T12:00:43.769Z,956.5821
2023-04-26T12:01:44.691Z,956.5862
2023-04-26T12:02:46.015Z,956.5909
2023-04-26T12:03:47.354Z,956.5737
2023-04-26T12:04:47.987Z,956.5657
2023-04-26T12:05:48.268Z,956.5541
2023-04-26T12:06:49.286Z,956.5591
2023-04-26T12:07:50.266Z,956.5707
2023-04-26T12:08:51.506Z,956.5818
2023-04-26T12:09:52.092Z,956.5787
2023-04-26T12:10:52.273Z,956.5978
2023-04-26T12:11:52.738Z,956.5922
2023-04-26T12:12:53.909Z,956.6184
2023-04-26T12:13:54.632Z,956.6069
2023-04-26T12:14:55.274Z,956.6082
2023-04-26T12:15:55.399Z,956.6096
2023-04-26T12:16:55.861Z,956.5966
2023-04-26T12:17:56.242Z,956.5955
2023-04-26T12:18:56.283Z,956.5844
2023-04-26T12:19:57.129Z,956.5856
2023-04-26T12:20:57.981Z,956.6024
2023-04-26T12:21:58.013Z,956.5997
2023-04-26T12:22:58.837Z,956.5803
2023-04-26T12:23:59.588Z,956.5611
2023-04-26T12:25:00.485Z,956.5449